createdAt,value
2023-05-12T00:03:57.127Z,98519.13
2023-05-12T00:09:01.347Z,98518.63
2023-05-12T00:14:08.120Z,98522.22
2023-05-12T00:19:12.141Z,98519.44
2023-05-12T00:24:16.020Z,98522.06
2023-05-12T00:29:21.848Z,98521.56
2023-05-12T00:34:26.497Z,98526.59
2023-05-12T00:39:30.313Z,98520.38
2023-05-12T00:44:36.699Z,98519.56
2023-05-12T00:49:42.719Z,98518.41
2023-05-12T00:54:47.810Z,98521.19
2023-05-12T00:59:53.005Z,98518.06
2023-05-12T01:04:57.310Z,98518.56
2023-05-12T01:10:01.751Z,98522.78
2023-05-12T01:15:12.955Z,98517.72
2023-05-12T01:20:19.874Z,98524.72
2023-05-12T01:25:25.788Z,98526.50
2023-05-12T01:30:33.253Z,98521.13
2023-05-12T01:35:38.322Z,98518.66
2023-05-12T01:40:42.386Z,98520.97
2023-05-12T01:45:47.757Z,98535.25
2023-05-12T01:50:52.228Z,98536.69
2023-05-12T01:55:58.454Z,98531.94
2023-05-12T02:01:05.395Z,98537.31
2023-05-12T02:06:10.654Z,98533.53
2023-05-12T02:11:14.999Z,98535.81
2023-05-12T02:16:20.494Z,98537.09
2023-05-12T02:21:24.961Z,98538.06
2023-05-12T02:26:30.918Z,98527.13
2023-05-12T02:31:36.482Z,98526.13
2023-05-12T02:36:50.368Z,98522.06
2023-05-12T02:41:54.769Z,98535.41
2023-05-12T02:47:00.461Z,98526.78
2023-05-12T02:52:04.720Z,98524.78
2023-05-12T02:57:10.818Z,98525.22
2023-05-12T03:02:16.621Z,98528.00
2023-05-12T03:07:20.845Z,98533.66
2023-05-12T03:12:25.501Z,98539.03
2023-05-12T03:17:31.135Z,98533.78
2023-05-12T03:22:35.434Z,98533.94
2023-05-12T03:27:39.360Z,98535.69
2023-05-12T03:32:46.481Z,98537.47
2023-05-12T03:37:50.783Z,98535.53
2023-05-12T03:42:54.938Z,98536.66
2023-05-12T03:48:00.518Z,98531.69
2023-05-12T03:53:04.780Z,98540.78
2023-05-12T03:58:09.456Z,98544.25
2023-05-12T04:03:15.626Z,98544.47
2023-05-12T04:08:19.519Z,98545.81
2023-05-12T04:13:24.042Z,98555.94
2023-05-12T04:18:30.560Z,98556.47
2023-05-12T04:23:34.656Z,98557.50
2023-05-12T04:28:38.702Z,98561.47
2023-05-12T04:33:45.280Z,98564.09
2023-05-12T04:38:51.563Z,98564.81
2023-05-12T04:49:04.802Z,98568.97
2023-05-12T04:54:10.868Z,98574.66
2023-05-12T04:59:16.458Z,98570.44
2023-05-12T05:04:23.640Z,98587.56
2023-05-12T05:09:27.611Z,98583.50
2023-05-12T05:14:32.129Z,98578.75
2023-05-12T05:19:48.255Z,98577.75
2023-05-12T05:24:56.703Z,98584.75
2023-05-12T05:30:00.824Z,98587.97
2023-05-12T05:35:08.983Z,98584.97
2023-05-12T05:40:17.245Z,98586.53
2023-05-12T05:45:22.110Z,98583.00
2023-05-12T05:50:31.712Z,98586.13
2023-05-12T05:55:36.024Z,98587.31
2023-05-12T06:00:40.604Z,98593.09
2023-05-12T06:05:46.399Z,98588.50
2023-05-12T06:10:50.766Z,98596.97
2023-05-12T06:15:55.914Z,98606.00
2023-05-12T06:21:01.583Z,98607.81
2023-05-12T06:26:07.772Z,98610.44
2023-05-12T06:31:12.123Z,98605.91
2023-05-12T06:36:18.181Z,98611.72
2023-05-12T06:41:22.046Z,98619.75
2023-05-12T06:46:26.131Z,98613.53
2023-05-12T06:51:32.096Z,98613.88
2023-05-12T06:56:36.580Z,98619.88
2023-05-12T07:01:41.419Z,98622.81
2023-05-12T07:06:46.621Z,98628.97
2023-05-12T07:11:51.090Z,98625.72
2023-05-12T07:16:55.266Z,98626.19
2023-05-12T07:22:00.752Z,98630.06
2023-05-12T07:27:05.477Z,98629.97
2023-05-12T07:32:09.522Z,98626.81
2023-05-12T07:37:16.920Z,98631.81
2023-05-12T07:42:22.480Z,98631.09
2023-05-12T07:47:28.724Z,98640.41
2023-05-12T07:52:34.854Z,98637.75
2023-05-12T07:57:39.023Z,98644.50
2023-05-12T08:02:44.274Z,98644.34
2023-05-12T08:07:49.861Z,98639.75
2023-05-12T08:12:53.700Z,98643.84
2023-05-12T08:17:57.891Z,98630.47
2023-05-12T08:23:03.144Z,98640.25
2023-05-12T08:28:07.181Z,98635.16
2023-05-12T08:33:11.282Z,98640.78
2023-05-12T08:38:16.536Z,98641.38
2023-05-12T08:43:33.452Z,98656.97
2023-05-12T08:48:39.277Z,98654.72
2023-05-12T08:53:45.794Z,98656.31
2023-05-12T08:58:49.953Z,98652.19
2023-05-12T09:03:54.418Z,98664.81
2023-05-12T09:09:00.286Z,98653.94
2023-05-12T09:14:06.419Z,98656.44
2023-05-12T09:19:10.891Z,98652.28
2023-05-12T09:24:16.137Z,98653.19
2023-05-12T09:29:30.010Z,98663.88
2023-05-12T09:34:38.408Z,98658.25
2023-05-12T09:39:45.770Z,98663.44
2023-05-12T09:44:52.649Z,98665.06
2023-05-12T09:49:57.778Z,98661.50
2023-05-12T09:55:11.994Z,98671.69
2023-05-12T10:00:33.124Z,98663.22
2023-05-12T10:05:49.083Z,98666.97
2023-05-12T10:10:55.005Z,98662.34
2023-05-12T10:15:59.861Z,98653.06
2023-05-12T10:21:04.541Z,98662.41
2023-05-12T10:26:11.468Z,98655.88
2023-05-12T10:31:16.030Z,98649.84
2023-05-12T10:36:20.705Z,98648.84
2023-05-12T10:41:33.408Z,98652.38
2023-05-12T10:46:37.666Z,98646.56
2023-05-12T10:51:49.677Z,98644.50
2023-05-12T10:56:59.870Z,98656.91
2023-05-12T11:02:06.582Z,98664.03
2023-05-12T11:07:13.859Z,98666.66
2023-05-12T11:12:20.212Z,98662.34
2023-05-12T11:17:24.080Z,98663.94
2023-05-12T11:22:28.359Z,98665.03
2023-05-12T11:27:33.680Z,98674.09
2023-05-12T11:32:37.724Z,98678.28
2023-05-12T11:37:43.385Z,98679.84
2023-05-12T11:42:52.593Z,98683.00
2023-05-12T11:48:07.831Z,98687.44
2023-05-12T11:53:14.548Z,98695.78
2023-05-12T11:58:25.940Z,98693.38
2023-05-12T12:03:30.131Z,98689.22
2023-05-12T12:08:34.246Z,98685.78
2023-05-12T12:13:39.712Z,98691.50
2023-05-12T12:18:43.609Z,98700.91
2023-05-12T12:23:51.389Z,98697.34
2023-05-12T12:28:57.584Z,98695.00
2023-05-12T12:34:02.348Z,98697.47
2023-05-12T12:39:06.845Z,98695.72
2023-05-12T12:44:12.826Z,98702.16
2023-05-12T12:49:16.850Z,98700.81
2023-05-12T12:54:21.060Z,98691.34
2023-05-12T12:59:26.997Z,98695.72
2023-05-12T13:04:30.802Z,98703.63
2023-05-12T13:09:34.919Z,98696.25
2023-05-12T13:14:40.502Z,98693.88
2023-05-12T13:19:44.717Z,98681.00
2023-05-12T13:24:49.429Z,98680.00
2023-05-12T13:29:54.803Z,98690.75
2023-05-12T13:34:59.119Z,98688.56
2023-05-12T13:40:03.247Z,98696.25
2023-05-12T13:45:10.658Z,98695.06
2023-05-12T13:50:14.914Z,98688.16
2023-05-12T13:55:21.740Z,98700.06
2023-05-12T14:00:29.829Z,98685.44
2023-05-12T14:05:34.331Z,98685.81
2023-05-12T14:10:38.233Z,98699.06
2023-05-12T14:15:49.099Z,98698.50
2023-05-12T14:20:53.950Z,98692.34
2023-05-12T14:25:58.197Z,98687.59
2023-05-12T14:31:04.938Z,98693.97
2023-05-12T14:36:09.910Z,98690.25
2023-05-12T14:41:13.863Z,98687.84
2023-05-12T14:46:19.343Z,98692.84
2023-05-12T14:51:23.172Z,98687.91
2023-05-12T14:56:27.233Z,98700.13
2023-05-12T15:01:32.941Z,98695.41
2023-05-12T15:06:38.059Z,98697.88
2023-05-12T15:11:44.546Z,98705.38
2023-05-12T15:16:49.746Z,98701.22
2023-05-12T15:21:53.680Z,98692.25
2023-05-12T15:26:57.656Z,98692.28
2023-05-12T15:32:04.096Z,98696.16
2023-05-12T15:37:08.204Z,98704.13
2023-05-12T15:42:14.493Z,98691.50
2023-05-12T15:47:20.040Z,98695.22
2023-05-12T15:52:27.701Z,98709.94
2023-05-12T15:57:31.947Z,98699.09
2023-05-12T16:02:37.560Z,98690.44
2023-05-12T16:07:41.771Z,98684.00
2023-05-12T16:12:47.826Z,98675.16
2023-05-12T16:17:53.495Z,98674.94
2023-05-12T16:22:57.477Z,98683.03
2023-05-12T16:28:01.785Z,98688.84
2023-05-12T16:33:08.052Z,98698.59
2023-05-12T16:38:13.428Z,98701.22
2023-05-12T16:43:17.550Z,98714.53
2023-05-12T16:48:23.140Z,98705.84
2023-05-12T16:53:28.857Z,98704.03
2023-05-12T16:58:33.065Z,98696.94
2023-05-12T17:03:39.099Z,98702.25
2023-05-12T17:08:43.285Z,98701.03
2023-05-12T17:13:48.030Z,98701.28
2023-05-12T17:24:01.019Z,98707.34
2023-05-12T17:29:05.264Z,98712.41
2023-05-12T17:34:10.854Z,98705.72
2023-05-12T17:39:16.011Z,98725.31
2023-05-12T17:44:20.139Z,98720.63
2023-05-12T17:49:25.501Z,98726.88
2023-05-12T17:54:29.795Z,98724.19
2023-05-12T17:59:34.432Z,98724.94
2023-05-12T18:04:40.232Z,98728.31
2023-05-12T18:09:44.138Z,98720.50
2023-05-12T18:14:48.471Z,98721.22
2023-05-12T18:19:53.961Z,98725.75
2023-05-12T18:24:57.892Z,98729.31
2023-05-12T18:30:01.935Z,98723.91
2023-05-12T18:35:08.893Z,98728.72
2023-05-12T18:40:13.788Z,98732.81
2023-05-12T18:45:18.544Z,98733.03
2023-05-12T18:50:24.025Z,98734.22
2023-05-12T18:55:27.812Z,98733.63
2023-05-12T19:00:33.668Z,98731.75
2023-05-12T19:05:43.133Z,98732.22
2023-05-12T19:10:47.126Z,98731.03
2023-05-12T19:15:51.565Z,98728.59
2023-05-12T19:20:57.035Z,98736.19
2023-05-12T19:26:00.964Z,98730.41
2023-05-12T19:31:05.269Z,98733.63
2023-05-12T19:36:11.603Z,98740.25
2023-05-12T19:41:15.686Z,98729.56
2023-05-12T19:46:19.839Z,98733.78
2023-05-12T19:51:25.119Z,98731.06
2023-05-12T19:56:30.584Z,98739.06
2023-05-12T20:01:35.072Z,98730.22
2023-05-12T20:06:40.659Z,98743.84
2023-05-12T20:11:44.870Z,98746.78
2023-05-12T20:16:49.398Z,98736.56
2023-05-12T20:21:54.826Z,98747.09
2023-05-12T20:26:59.171Z,98744.34
2023-05-12T20:32:03.217Z,98739.16
2023-05-12T20:37:08.614Z,98739.56
2023-05-12T20:42:12.682Z,98740.59
2023-05-12T20:47:16.920Z,98739.00
2023-05-12T20:52:23.268Z,98742.47
2023-05-12T20:57:28.100Z,98743.28
2023-05-12T21:02:32.417Z,98739.25
2023-05-12T21:07:38.211Z,98736.81
2023-05-12T21:12:42.127Z,98742.41
2023-05-12T21:17:46.595Z,98743.41
2023-05-12T21:22:51.783Z,98742.56
2023-05-12T21:27:56.020Z,98747.03
2023-05-12T21:33:00.253Z,98745.38
2023-05-12T21:38:07.329Z,98742.13
2023-05-12T21:43:11.167Z,98738.75
2023-05-12T21:48:15.245Z,98741.69
2023-05-12T21:53:20.470Z,98739.88
2023-05-12T21:58:24.559Z,98745.44
2023-05-12T22:03:28.661Z,98743.19
2023-05-12T22:08:34.036Z,98741.22
2023-05-12T22:13:38.076Z,98741.53
2023-05-12T22:18:43.524Z,98742.19
2023-05-12T22:23:49.065Z,98735.53
2023-05-12T22:28:52.896Z,98733.38
2023-05-12T22:33:56.728Z,98736.97
2023-05-12T22:39:02.186Z,98738.31
2023-05-12T22:44:06.480Z,98734.38
2023-05-12T22:49:10.652Z,98733.38
2023-05-12T22:54:15.948Z,98743.66
2023-05-12T22:59:20.006Z,98732.41
2023-05-12T23:04:24.069Z,98737.63
2023-05-12T23:09:29.336Z,98738.88
2023-05-12T23:14:33.376Z,98736.59
2023-05-12T23:19:38.192Z,98738.19
2023-05-12T23:24:44.460Z,98738.31
2023-05-12T23:29:48.643Z,98737.16
2023-05-12T23:34:52.689Z,98741.69
2023-05-12T23:39:58.242Z,98731.56
2023-05-12T23:45:02.027Z,98733.81
2023-05-12T23:50:07.349Z,98727.97
2023-05-12T23:55:13.226Z,98729.25
